sensor_id;sensor_type;location;lat;lon;timestamp;noise_LAeq;noise_LA_min;noise_LA_max;noise_LA01;noise_LA95
72736;Laerm;60856;53.238;10.448;2023-06-04T00:27:29;46.58;45.31;49.63;;
72736;Laerm;60856;53.238;10.448;2023-06-04T00:30:01;46.85;45.48;50.44;;
72736;Laerm;60856;53.238;10.448;2023-06-04T00:32:32;46.56;45.26;50.58;;
72736;Laerm;60856;53.238;10.448;2023-06-04T00:34:58;46.55;45.14;50.11;;
72736;Laerm;60856;53.238;10.448;2023-06-04T00:37:27;46.57;45.22;49.95;;
72736;Laerm;60856;53.238;10.448;2023-06-04T00:40:30;46.56;45.37;50.23;;
72736;Laerm;60856;53.238;10.448;2023-06-04T00:46:24;46.57;44.98;49.81;;
72736;Laerm;60856;53.238;10.448;2023-06-04T01:45:04;46.55;45.33;49.81;;
72736;Laerm;60856;53.238;10.448;2023-06-04T03:04:06;46.57;45.31;49.58;;
72736;Laerm;60856;53.238;10.448;2023-06-04T03:06:35;46.56;45.33;49.70;;
72736;Laerm;60856;53.238;10.448;2023-06-04T03:09:03;46.58;45.40;49.77;;
72736;Laerm;60856;53.238;10.448;2023-06-04T03:11:29;46.55;45.18;50.39;;
72736;Laerm;60856;53.238;10.448;2023-06-04T03:13:54;46.56;45.41;49.73;;
72736;Laerm;60856;53.238;10.448;2023-06-04T03:16:19;46.54;44.96;49.73;;
72736;Laerm;60856;53.238;10.448;2023-06-04T03:18:45;46.54;44.86;49.58;;
72736;Laerm;60856;53.238;10.448;2023-06-04T03:21:11;46.56;45.35;49.83;;
72736;Laerm;60856;53.238;10.448;2023-06-04T03:23:36;46.55;45.30;49.95;;
72736;Laerm;60856;53.238;10.448;2023-06-04T03:26:02;46.56;45.17;50.11;;
72736;Laerm;60856;53.238;10.448;2023-06-04T03:28:27;46.54;45.37;49.64;;
72736;Laerm;60856;53.238;10.448;2023-06-04T03:30:53;46.56;45.33;49.25;;
72736;Laerm;60856;53.238;10.448;2023-06-04T03:33:18;46.54;45.19;49.61;;
72736;Laerm;60856;53.238;10.448;2023-06-04T03:35:43;46.54;45.43;49.77;;
72736;Laerm;60856;53.238;10.448;2023-06-04T03:38:08;46.55;45.30;49.82;;
72736;Laerm;60856;53.238;10.448;2023-06-04T03:40:33;46.55;45.31;49.76;;
72736;Laerm;60856;53.238;10.448;2023-06-04T03:42:59;46.53;45.20;49.10;;
72736;Laerm;60856;53.238;10.448;2023-06-04T03:45:25;46.59;45.36;49.70;;
72736;Laerm;60856;53.238;10.448;2023-06-04T03:47:50;46.76;45.31;50.41;;
72736;Laerm;60856;53.238;10.448;2023-06-04T03:50:17;46.89;45.49;49.72;;
72736;Laerm;60856;53.238;10.448;2023-06-04T03:52:42;47.04;45.75;50.33;;
72736;Laerm;60856;53.238;10.448;2023-06-04T03:55:07;46.94;45.72;50.45;;
72736;Laerm;60856;53.238;10.448;2023-06-04T03:57:32;47.15;45.81;49.93;;
72736;Laerm;60856;53.238;10.448;2023-06-04T03:59:58;47.25;45.60;50.15;;
72736;Laerm;60856;53.238;10.448;2023-06-04T04:02:23;47.37;46.11;49.95;;
72736;Laerm;60856;53.238;10.448;2023-06-04T04:04:48;47.52;46.38;50.14;;
72736;Laerm;60856;53.238;10.448;2023-06-04T04:07:14;47.63;46.25;50.38;;
72736;Laerm;60856;53.238;10.448;2023-06-04T04:09:40;47.74;46.39;50.29;;
72736;Laerm;60856;53.238;10.448;2023-06-04T04:12:05;47.88;46.62;50.34;;
72736;Laerm;60856;53.238;10.448;2023-06-04T04:14:31;47.99;46.73;51.20;;
72736;Laerm;60856;53.238;10.448;2023-06-04T04:16:56;48.12;46.75;50.90;;
72736;Laerm;60856;53.238;10.448;2023-06-04T04:19:21;48.28;46.99;50.77;;
72736;Laerm;60856;53.238;10.448;2023-06-04T04:21:47;48.40;47.18;51.32;;
72736;Laerm;60856;53.238;10.448;2023-06-04T04:27:00;48.57;47.49;50.99;;
72736;Laerm;60856;53.238;10.448;2023-06-04T04:29:28;48.66;47.50;51.00;;
72736;Laerm;60856;53.238;10.448;2023-06-04T04:31:57;48.74;47.10;51.19;;
72736;Laerm;60856;53.238;10.448;2023-06-04T04:34:25;48.88;47.65;51.25;;
72736;Laerm;60856;53.238;10.448;2023-06-04T04:36:51;49.04;47.80;51.23;;
72736;Laerm;60856;53.238;10.448;2023-06-04T04:39:18;49.19;48.05;51.14;;
72736;Laerm;60856;53.238;10.448;2023-06-04T04:41:43;49.28;47.92;51.23;;
72736;Laerm;60856;53.238;10.448;2023-06-04T04:44:08;49.40;48.11;51.57;;
72736;Laerm;60856;53.238;10.448;2023-06-04T04:46:33;49.54;48.25;51.87;;
72736;Laerm;60856;53.238;10.448;2023-06-04T04:48:59;49.60;48.24;51.54;;
72736;Laerm;60856;53.238;10.448;2023-06-04T04:51:24;49.66;48.61;51.60;;
72736;Laerm;60856;53.238;10.448;2023-06-04T04:53:49;49.68;48.54;51.52;;
72736;Laerm;60856;53.238;10.448;2023-06-04T04:56:15;49.69;48.47;52.08;;
72736;Laerm;60856;53.238;10.448;2023-06-04T04:58:40;49.78;48.61;52.04;;
72736;Laerm;60856;53.238;10.448;2023-06-04T05:01:06;49.89;48.58;51.91;;
72736;Laerm;60856;53.238;10.448;2023-06-04T05:03:31;49.96;48.71;51.95;;
72736;Laerm;60856;53.238;10.448;2023-06-04T05:05:56;50.08;48.90;51.74;;
72736;Laerm;60856;53.238;10.448;2023-06-04T05:08:22;49.90;48.62;51.99;;
72736;Laerm;60856;53.238;10.448;2023-06-04T05:10:47;49.88;48.72;51.83;;
72736;Laerm;60856;53.238;10.448;2023-06-04T05:13:12;49.84;48.71;51.87;;
72736;Laerm;60856;53.238;10.448;2023-06-04T05:15:38;49.81;48.53;51.71;;
72736;Laerm;60856;53.238;10.448;2023-06-04T05:18:04;49.85;48.61;51.79;;
72736;Laerm;60856;53.238;10.448;2023-06-04T05:20:30;49.92;48.73;51.67;;
72736;Laerm;60856;53.238;10.448;2023-06-04T05:22:55;49.96;48.80;52.00;;
72736;Laerm;60856;53.238;10.448;2023-06-04T05:25:20;50.03;48.70;52.12;;
72736;Laerm;60856;53.238;10.448;2023-06-04T05:27:46;50.14;49.10;52.63;;
72736;Laerm;60856;53.238;10.448;2023-06-04T05:30:14;50.25;49.03;52.20;;
72736;Laerm;60856;53.238;10.448;2023-06-04T05:32:39;50.32;48.98;52.03;;
72736;Laerm;60856;53.238;10.448;2023-06-04T05:35:05;50.27;48.80;52.09;;
72736;Laerm;60856;53.238;10.448;2023-06-04T05:37:32;49.92;48.55;51.60;;
72736;Laerm;60856;53.238;10.448;2023-06-04T05:39:59;49.82;48.58;51.77;;
72736;Laerm;60856;53.238;10.448;2023-06-04T05:42:25;51.14;49.69;52.77;;
72736;Laerm;60856;53.238;10.448;2023-06-04T05:44:50;51.55;50.20;53.18;;
72736;Laerm;60856;53.238;10.448;2023-06-04T05:47:15;54.46;50.74;56.36;;
72736;Laerm;60856;53.238;10.448;2023-06-04T05:49:41;54.85;53.17;60.35;;
72736;Laerm;60856;53.238;10.448;2023-06-04T05:52:07;54.64;53.42;56.04;;
72736;Laerm;60856;53.238;10.448;2023-06-04T05:54:32;54.29;52.74;55.82;;
72736;Laerm;60856;53.238;10.448;2023-06-04T05:56:58;53.65;52.18;55.47;;
72736;Laerm;60856;53.238;10.448;2023-06-04T05:59:23;53.37;52.11;54.78;;
72736;Laerm;60856;53.238;10.448;2023-06-04T06:01:49;53.13;51.74;54.65;;
72736;Laerm;60856;53.238;10.448;2023-06-04T06:04:14;53.05;51.66;54.70;;
72736;Laerm;60856;53.238;10.448;2023-06-04T06:06:41;53.34;51.68;55.32;;
72736;Laerm;60856;53.238;10.448;2023-06-04T06:09:09;53.73;52.04;55.54;;
72736;Laerm;60856;53.238;10.448;2023-06-04T06:11:34;54.15;52.42;55.95;;
72736;Laerm;60856;53.238;10.448;2023-06-04T06:14:00;54.13;52.02;55.90;;
72736;Laerm;60856;53.238;10.448;2023-06-04T06:16:26;54.69;52.82;56.60;;
72736;Laerm;60856;53.238;10.448;2023-06-04T06:18:52;54.60;52.25;57.17;;
72736;Laerm;60856;53.238;10.448;2023-06-04T06:21:17;54.07;51.86;56.44;;
72736;Laerm;60856;53.238;10.448;2023-06-04T06:23:43;53.24;51.86;55.26;;
72736;Laerm;60856;53.238;10.448;2023-06-04T06:26:08;53.22;51.59;55.00;;
72736;Laerm;60856;53.238;10.448;2023-06-04T06:28:33;53.25;51.88;54.98;;
72736;Laerm;60856;53.238;10.448;2023-06-04T06:30:59;53.51;51.82;55.71;;
72736;Laerm;60856;53.238;10.448;2023-06-04T06:33:24;53.29;51.93;55.04;;
72736;Laerm;60856;53.238;10.448;2023-06-04T06:35:49;54.08;52.34;55.92;;
72736;Laerm;60856;53.238;10.448;2023-06-04T06:38:15;54.83;52.74;57.35;;
72736;Laerm;60856;53.238;10.448;2023-06-04T06:40:40;55.91;53.24;58.74;;
72736;Laerm;60856;53.238;10.448;2023-06-04T06:43:06;56.10;52.57;58.84;;
72736;Laerm;60856;53.238;10.448;2023-06-04T06:45:31;55.47;52.97;58.07;;
72736;Laerm;60856;53.238;10.448;2023-06-04T06:47:56;57.15;52.95;59.05;;
72736;Laerm;60856;53.238;10.448;2023-06-04T06:50:21;57.25;53.63;59.85;;
72736;Laerm;60856;53.238;10.448;2023-06-04T06:52:47;58.58;56.00;60.45;;
72736;Laerm;60856;53.238;10.448;2023-06-04T06:55:12;58.77;56.50;60.61;;
72736;Laerm;60856;53.238;10.448;2023-06-04T06:57:37;58.62;56.62;60.25;;
72736;Laerm;60856;53.238;10.448;2023-06-04T07:00:06;56.97;53.40;59.74;;
72736;Laerm;60856;53.238;10.448;2023-06-04T07:02:34;57.47;54.11;60.38;;
72736;Laerm;60856;53.238;10.448;2023-06-04T07:04:59;55.23;53.12;57.52;;
72736;Laerm;60856;53.238;10.448;2023-06-04T07:07:25;54.53;52.54;56.92;;
72736;Laerm;60856;53.238;10.448;2023-06-04T07:09:50;53.52;51.98;55.29;;
72736;Laerm;60856;53.238;10.448;2023-06-04T07:12:17;53.55;51.92;55.38;;
72736;Laerm;60856;53.238;10.448;2023-06-04T07:14:42;53.79;52.24;55.63;;
72736;Laerm;60856;53.238;10.448;2023-06-04T07:17:07;53.98;52.12;55.87;;
72736;Laerm;60856;53.238;10.448;2023-06-04T07:19:33;54.01;52.43;55.62;;
72736;Laerm;60856;53.238;10.448;2023-06-04T07:21:58;53.67;52.34;55.19;;
72736;Laerm;60856;53.238;10.448;2023-06-04T07:24:23;53.54;52.23;55.09;;
72736;Laerm;60856;53.238;10.448;2023-06-04T07:26:50;53.47;52.19;54.81;;
72736;Laerm;60856;53.238;10.448;2023-06-04T07:29:15;53.77;52.24;55.90;;
72736;Laerm;60856;53.238;10.448;2023-06-04T07:31:41;54.79;53.39;56.18;;
72736;Laerm;60856;53.238;10.448;2023-06-04T07:34:06;54.65;53.43;55.80;;
72736;Laerm;60856;53.238;10.448;2023-06-04T07:36:31;54.20;52.68;55.66;;
72736;Laerm;60856;53.238;10.448;2023-06-04T07:38:58;54.56;53.22;55.94;;
72736;Laerm;60856;53.238;10.448;2023-06-04T07:41:23;54.77;53.42;56.03;;
72736;Laerm;60856;53.238;10.448;2023-06-04T07:43:48;54.93;53.70;56.22;;
72736;Laerm;60856;53.238;10.448;2023-06-04T07:46:13;55.37;54.08;56.78;;
72736;Laerm;60856;53.238;10.448;2023-06-04T07:48:43;56.53;55.04;58.14;;
72736;Laerm;60856;53.238;10.448;2023-06-04T07:51:08;57.36;56.21;58.60;;
72736;Laerm;60856;53.238;10.448;2023-06-04T07:53:34;56.99;55.94;58.03;;
72736;Laerm;60856;53.238;10.448;2023-06-04T07:56:00;56.88;55.98;57.88;;
72736;Laerm;60856;53.238;10.448;2023-06-04T07:58:26;56.84;55.77;57.79;;
72736;Laerm;60856;53.238;10.448;2023-06-04T08:00:51;56.87;55.78;57.89;;
72736;Laerm;60856;53.238;10.448;2023-06-04T08:03:17;56.86;55.83;57.92;;
72736;Laerm;60856;53.238;10.448;2023-06-04T08:05:42;56.85;55.75;57.89;;
72736;Laerm;60856;53.238;10.448;2023-06-04T08:08:08;56.84;55.83;57.81;;
72736;Laerm;60856;53.238;10.448;2023-06-04T08:10:33;56.78;55.66;57.94;;
72736;Laerm;60856;53.238;10.448;2023-06-04T08:12:59;56.69;55.75;57.65;;
72736;Laerm;60856;53.238;10.448;2023-06-04T08:15:25;56.72;55.61;57.71;;
72736;Laerm;60856;53.238;10.448;2023-06-04T08:17:50;56.75;55.70;57.61;;
72736;Laerm;60856;53.238;10.448;2023-06-04T08:20:15;56.79;55.75;57.79;;
72736;Laerm;60856;53.238;10.448;2023-06-04T08:22:40;56.76;55.67;57.68;;
72736;Laerm;60856;53.238;10.448;2023-06-04T08:25:06;56.70;55.61;57.59;;
72736;Laerm;60856;53.238;10.448;2023-06-04T08:27:32;56.67;55.66;57.76;;
72736;Laerm;60856;53.238;10.448;2023-06-04T08:29:57;56.62;55.48;57.68;;
72736;Laerm;60856;53.238;10.448;2023-06-04T08:32:22;56.64;55.51;57.57;;
72736;Laerm;60856;53.238;10.448;2023-06-04T08:34:48;56.68;55.51;57.68;;
72736;Laerm;60856;53.238;10.448;2023-06-04T08:37:13;56.72;55.62;57.70;;
72736;Laerm;60856;53.238;10.448;2023-06-04T08:39:38;56.75;55.80;57.96;;
72736;Laerm;60856;53.238;10.448;2023-06-04T08:42:06;56.73;55.70;57.80;;
72736;Laerm;60856;53.238;10.448;2023-06-04T08:44:32;56.72;55.56;57.71;;
72736;Laerm;60856;53.238;10.448;2023-06-04T08:47:01;56.65;55.73;57.77;;
72736;Laerm;60856;53.238;10.448;2023-06-04T08:49:27;56.66;55.67;57.75;;
72736;Laerm;60856;53.238;10.448;2023-06-04T08:51:54;56.67;55.60;57.58;;
72736;Laerm;60856;53.238;10.448;2023-06-04T08:54:21;56.66;55.67;57.72;;
72736;Laerm;60856;53.238;10.448;2023-06-04T08:56:46;56.64;55.57;57.77;;
72736;Laerm;60856;53.238;10.448;2023-06-04T08:59:13;56.68;55.65;57.58;;
72736;Laerm;60856;53.238;10.448;2023-06-04T09:01:39;56.66;55.49;57.67;;
72736;Laerm;60856;53.238;10.448;2023-06-04T09:04:09;56.64;55.65;57.75;;
72736;Laerm;60856;53.238;10.448;2023-06-04T09:06:34;56.59;55.36;57.61;;
72736;Laerm;60856;53.238;10.448;2023-06-04T09:09:03;56.57;55.35;57.49;;
72736;Laerm;60856;53.238;10.448;2023-06-04T09:12:03;56.54;55.42;57.48;;
72736;Laerm;60856;53.238;10.448;2023-06-04T09:14:22;56.55;55.54;57.52;;
72736;Laerm;60856;53.238;10.448;2023-06-04T09:16:48;56.56;55.59;57.48;;
72736;Laerm;60856;53.238;10.448;2023-06-04T09:19:14;56.60;55.59;57.52;;
72736;Laerm;60856;53.238;10.448;2023-06-04T09:21:49;56.55;55.59;57.54;;
72736;Laerm;60856;53.238;10.448;2023-06-04T09:24:15;56.53;55.46;57.46;;
72736;Laerm;60856;53.238;10.448;2023-06-04T09:26:41;56.54;55.28;57.51;;
72736;Laerm;60856;53.238;10.448;2023-06-04T09:29:06;56.55;55.59;57.60;;
72736;Laerm;60856;53.238;10.448;2023-06-04T09:31:31;56.53;55.56;57.44;;
72736;Laerm;60856;53.238;10.448;2023-06-04T09:34:02;56.53;55.42;57.89;;
72736;Laerm;60856;53.238;10.448;2023-06-04T09:36:30;56.60;55.62;57.75;;
72736;Laerm;60856;53.238;10.448;2023-06-04T09:38:56;56.62;55.52;57.56;;
72736;Laerm;60856;53.238;10.448;2023-06-04T09:41:21;56.62;55.55;57.57;;
72736;Laerm;60856;53.238;10.448;2023-06-04T09:43:47;56.59;55.63;57.59;;
72736;Laerm;60856;53.238;10.448;2023-06-04T09:46:13;56.61;55.62;57.73;;
72736;Laerm;60856;53.238;10.448;2023-06-04T09:48:39;56.63;55.46;57.81;;
72736;Laerm;60856;53.238;10.448;2023-06-04T09:51:14;56.64;55.73;57.88;;
72736;Laerm;60856;53.238;10.448;2023-06-04T09:53:55;56.59;55.52;57.62;;
72736;Laerm;60856;53.238;10.448;2023-06-04T09:56:21;56.54;55.41;57.67;;
72736;Laerm;60856;53.238;10.448;2023-06-04T09:58:50;56.56;55.53;57.60;;
72736;Laerm;60856;53.238;10.448;2023-06-04T10:01:18;56.58;55.48;57.42;;
72736;Laerm;60856;53.238;10.448;2023-06-04T10:03:46;56.58;55.46;57.46;;
72736;Laerm;60856;53.238;10.448;2023-06-04T10:06:12;56.59;55.55;57.56;;
72736;Laerm;60856;53.238;10.448;2023-06-04T10:08:39;56.59;55.71;57.62;;
72736;Laerm;60856;53.238;10.448;2023-06-04T10:11:06;56.61;55.72;57.59;;
72736;Laerm;60856;53.238;10.448;2023-06-04T10:13:37;56.59;55.40;57.54;;
72736;Laerm;60856;53.238;10.448;2023-06-04T10:16:03;56.57;55.50;57.47;;
72736;Laerm;60856;53.238;10.448;2023-06-04T10:18:31;56.56;55.43;57.52;;
72736;Laerm;60856;53.238;10.448;2023-06-04T10:20:57;56.59;55.33;57.57;;
72736;Laerm;60856;53.238;10.448;2023-06-04T10:23:23;56.54;55.54;57.65;;
72736;Laerm;60856;53.238;10.448;2023-06-04T10:25:49;56.49;55.44;57.45;;
72736;Laerm;60856;53.238;10.448;2023-06-04T10:28:15;56.46;55.42;57.42;;
72736;Laerm;60856;53.238;10.448;2023-06-04T10:30:43;56.45;55.53;57.51;;
72736;Laerm;60856;53.238;10.448;2023-06-04T10:33:08;56.49;55.48;57.57;;
72736;Laerm;60856;53.238;10.448;2023-06-04T10:35:34;48.79;45.20;59.33;;
72736;Laerm;60856;53.238;10.448;2023-06-04T10:40:32;47.38;45.23;51.79;;
72736;Laerm;60856;53.238;10.448;2023-06-04T10:43:03;47.71;45.57;54.64;;
72736;Laerm;60856;53.238;10.448;2023-06-04T10:45:29;47.32;45.67;51.20;;
72736;Laerm;60856;53.238;10.448;2023-06-04T10:48:05;47.61;45.47;52.12;;
72736;Laerm;60856;53.238;10.448;2023-06-04T10:50:34;47.31;45.48;51.26;;
72736;Laerm;60856;53.238;10.448;2023-06-04T10:52:59;47.38;45.59;51.67;;
72736;Laerm;60856;53.238;10.448;2023-06-04T10:55:28;47.21;45.32;51.14;;
72736;Laerm;60856;53.238;10.448;2023-06-04T10:57:54;47.31;45.22;50.89;;
72736;Laerm;60856;53.238;10.448;2023-06-04T11:00:19;47.09;45.58;50.87;;
72736;Laerm;60856;53.238;10.448;2023-06-04T11:02:54;47.27;45.04;52.59;;
72736;Laerm;60856;53.238;10.448;2023-06-04T11:08:09;47.06;45.43;50.66;;
72736;Laerm;60856;53.238;10.448;2023-06-04T11:10:45;47.02;45.46;50.41;;
72736;Laerm;60856;53.238;10.448;2023-06-04T11:13:10;47.12;45.48;51.10;;
72736;Laerm;60856;53.238;10.448;2023-06-04T11:15:39;47.23;45.34;50.66;;
72736;Laerm;60856;53.238;10.448;2023-06-04T11:18:05;47.40;45.17;51.59;;
72736;Laerm;60856;53.238;10.448;2023-06-04T11:20:30;47.33;45.27;51.85;;
72736;Laerm;60856;53.238;10.448;2023-06-04T11:22:56;47.29;45.19;51.61;;
72736;Laerm;60856;53.238;10.448;2023-06-04T11:25:24;50.91;45.54;55.33;;
72736;Laerm;60856;53.238;10.448;2023-06-04T11:27:51;52.51;46.47;56.79;;
72736;Laerm;60856;53.238;10.448;2023-06-04T11:30:17;53.04;48.54;56.06;;
72736;Laerm;60856;53.238;10.448;2023-06-04T11:32:42;53.01;48.06;57.51;;
72736;Laerm;60856;53.238;10.448;2023-06-04T11:35:08;53.55;47.18;56.50;;
72736;Laerm;60856;53.238;10.448;2023-06-04T11:37:33;53.33;45.49;58.00;;
72736;Laerm;60856;53.238;10.448;2023-06-04T11:39:59;51.85;46.09;56.91;;
72736;Laerm;60856;53.238;10.448;2023-06-04T11:42:26;50.32;46.21;54.23;;
72736;Laerm;60856;53.238;10.448;2023-06-04T11:44:57;52.61;49.74;54.37;;
72736;Laerm;60856;53.238;10.448;2023-06-04T11:47:23;52.83;49.94;54.88;;
72736;Laerm;60856;53.238;10.448;2023-06-04T11:49:53;52.43;49.88;54.43;;
72736;Laerm;60856;53.238;10.448;2023-06-04T11:52:19;52.62;48.38;54.65;;
72736;Laerm;60856;53.238;10.448;2023-06-04T11:54:44;52.61;47.22;54.98;;
72736;Laerm;60856;53.238;10.448;2023-06-04T11:57:09;52.80;48.97;54.87;;
72736;Laerm;60856;53.238;10.448;2023-06-04T11:59:35;52.62;49.62;54.89;;
72736;Laerm;60856;53.238;10.448;2023-06-04T12:02:00;52.89;50.54;54.79;;
72736;Laerm;60856;53.238;10.448;2023-06-04T12:04:29;52.88;47.50;55.47;;
72736;Laerm;60856;53.238;10.448;2023-06-04T12:06:55;49.53;45.39;55.44;;
72736;Laerm;60856;53.238;10.448;2023-06-04T12:09:22;50.47;45.59;55.14;;
72736;Laerm;60856;53.238;10.448;2023-06-04T12:11:48;48.55;45.34;52.86;;
72736;Laerm;60856;53.238;10.448;2023-06-04T12:14:16;48.47;45.25;52.98;;
72736;Laerm;60856;53.238;10.448;2023-06-04T12:16:54;48.51;45.26;53.05;;
72736;Laerm;60856;53.238;10.448;2023-06-04T12:19:20;48.76;45.35;53.92;;
72736;Laerm;60856;53.238;10.448;2023-06-04T12:21:45;47.44;45.58;50.99;;
72736;Laerm;60856;53.238;10.448;2023-06-04T12:24:14;47.12;45.68;50.19;;
72736;Laerm;60856;53.238;10.448;2023-06-04T12:26:40;47.52;45.55;51.87;;
72736;Laerm;60856;53.238;10.448;2023-06-04T12:29:16;48.42;45.49;52.38;;
72736;Laerm;60856;53.238;10.448;2023-06-04T12:34:38;48.93;45.59;53.62;;
72736;Laerm;60856;53.238;10.448;2023-06-04T12:37:03;49.02;45.63;53.62;;
72736;Laerm;60856;53.238;10.448;2023-06-04T12:39:31;50.19;45.80;54.99;;
72736;Laerm;60856;53.238;10.448;2023-06-04T12:41:56;51.64;46.41;55.75;;
72736;Laerm;60856;53.238;10.448;2023-06-04T12:44:21;52.06;46.65;55.81;;
72736;Laerm;60856;53.238;10.448;2023-06-04T12:46:47;52.38;46.65;55.72;;
72736;Laerm;60856;53.238;10.448;2023-06-04T12:49:12;51.60;46.59;55.51;;
72736;Laerm;60856;53.238;10.448;2023-06-04T12:51:37;52.41;47.07;56.56;;
72736;Laerm;60856;53.238;10.448;2023-06-04T12:54:03;52.03;45.77;56.90;;
72736;Laerm;60856;53.238;10.448;2023-06-04T12:56:28;53.24;45.88;57.58;;
72736;Laerm;60856;53.238;10.448;2023-06-04T12:58:54;53.35;46.26;57.22;;
72736;Laerm;60856;53.238;10.448;2023-06-04T13:01:19;52.79;46.38;56.61;;
72736;Laerm;60856;53.238;10.448;2023-06-04T13:03:45;53.30;46.76;57.00;;
72736;Laerm;60856;53.238;10.448;2023-06-04T13:06:10;53.67;47.87;57.71;;
72736;Laerm;60856;53.238;10.448;2023-06-04T13:08:35;53.67;47.80;57.17;;
72736;Laerm;60856;53.238;10.448;2023-06-04T13:11:01;53.30;46.54;56.84;;
72736;Laerm;60856;53.238;10.448;2023-06-04T13:13:26;53.07;45.94;55.73;;
72736;Laerm;60856;53.238;10.448;2023-06-04T13:15:52;53.22;46.55;56.12;;
72736;Laerm;60856;53.238;10.448;2023-06-04T13:18:17;53.43;46.13;56.20;;
72736;Laerm;60856;53.238;10.448;2023-06-04T13:20:42;53.30;47.64;56.40;;
72736;Laerm;60856;53.238;10.448;2023-06-04T13:23:08;53.31;47.56;55.99;;
72736;Laerm;60856;53.238;10.448;2023-06-04T13:25:33;53.57;47.89;56.43;;
72736;Laerm;60856;53.238;10.448;2023-06-04T13:27:59;53.77;46.96;56.44;;
72736;Laerm;60856;53.238;10.448;2023-06-04T13:30:24;53.01;46.12;55.65;;
72736;Laerm;60856;53.238;10.448;2023-06-04T13:32:52;53.07;46.16;55.80;;
72736;Laerm;60856;53.238;10.448;2023-06-04T13:35:18;52.90;45.96;55.88;;
72736;Laerm;60856;53.238;10.448;2023-06-04T13:37:43;52.81;46.42;56.07;;
72736;Laerm;60856;53.238;10.448;2023-06-04T13:40:08;53.09;46.77;56.02;;
72736;Laerm;60856;53.238;10.448;2023-06-04T13:42:34;53.16;47.15;55.88;;
72736;Laerm;60856;53.238;10.448;2023-06-04T13:44:59;52.75;46.89;55.64;;
72736;Laerm;60856;53.238;10.448;2023-06-04T13:47:25;53.05;46.66;55.65;;
72736;Laerm;60856;53.238;10.448;2023-06-04T13:49:50;52.73;45.71;56.28;;
72736;Laerm;60856;53.238;10.448;2023-06-04T13:52:15;53.12;46.33;56.11;;
72736;Laerm;60856;53.238;10.448;2023-06-04T13:54:40;53.72;48.73;56.29;;
72736;Laerm;60856;53.238;10.448;2023-06-04T13:57:06;52.91;45.68;57.17;;
72736;Laerm;60856;53.238;10.448;2023-06-04T13:59:32;52.15;46.22;55.04;;
72736;Laerm;60856;53.238;10.448;2023-06-04T14:01:57;52.92;46.68;55.48;;
72736;Laerm;60856;53.238;10.448;2023-06-04T14:04:22;51.07;46.65;54.52;;
72736;Laerm;60856;53.238;10.448;2023-06-04T14:06:47;51.18;46.72;54.83;;
72736;Laerm;60856;53.238;10.448;2023-06-04T14:09:13;51.10;46.66;55.03;;
72736;Laerm;60856;53.238;10.448;2023-06-04T14:11:38;51.00;46.35;54.69;;
72736;Laerm;60856;53.238;10.448;2023-06-04T14:14:03;50.12;46.37;53.61;;
72736;Laerm;60856;53.238;10.448;2023-06-04T14:16:29;50.27;46.19;54.04;;
72736;Laerm;60856;53.238;10.448;2023-06-04T14:18:54;51.22;45.87;55.22;;
72736;Laerm;60856;53.238;10.448;2023-06-04T14:21:19;52.61;45.82;55.88;;
72736;Laerm;60856;53.238;10.448;2023-06-04T14:23:46;53.13;46.84;56.34;;
72736;Laerm;60856;53.238;10.448;2023-06-04T14:26:11;52.89;46.70;56.14;;
72736;Laerm;60856;53.238;10.448;2023-06-04T14:28:37;52.62;46.63;55.18;;
72736;Laerm;60856;53.238;10.448;2023-06-04T14:31:02;51.29;45.86;54.90;;
72736;Laerm;60856;53.238;10.448;2023-06-04T14:33:28;52.20;46.47;55.13;;
72736;Laerm;60856;53.238;10.448;2023-06-04T14:35:53;49.19;45.96;54.74;;
72736;Laerm;60856;53.238;10.448;2023-06-04T14:38:18;48.25;45.63;52.17;;
72736;Laerm;60856;53.238;10.448;2023-06-04T14:40:43;49.85;45.65;54.24;;
72736;Laerm;60856;53.238;10.448;2023-06-04T14:43:12;50.30;45.93;54.22;;
72736;Laerm;60856;53.238;10.448;2023-06-04T14:45:37;50.12;45.57;53.53;;
72736;Laerm;60856;53.238;10.448;2023-06-04T14:48:04;50.13;45.72;53.72;;
72736;Laerm;60856;53.238;10.448;2023-06-04T14:50:30;50.22;45.50;53.96;;
72736;Laerm;60856;53.238;10.448;2023-06-04T14:52:55;49.92;45.35;53.32;;
72736;Laerm;60856;53.238;10.448;2023-06-04T14:55:20;49.30;45.79;52.43;;
72736;Laerm;60856;53.238;10.448;2023-06-04T14:57:46;49.06;45.51;52.45;;
72736;Laerm;60856;53.238;10.448;2023-06-04T15:00:11;48.51;45.37;51.94;;
72736;Laerm;60856;53.238;10.448;2023-06-04T15:02:36;48.70;45.52;52.49;;
72736;Laerm;60856;53.238;10.448;2023-06-04T15:05:01;48.64;45.55;52.41;;
72736;Laerm;60856;53.238;10.448;2023-06-04T15:07:27;48.59;45.50;52.07;;
72736;Laerm;60856;53.238;10.448;2023-06-04T15:09:52;48.61;45.64;52.14;;
72736;Laerm;60856;53.238;10.448;2023-06-04T15:12:17;48.58;45.55;52.33;;
72736;Laerm;60856;53.238;10.448;2023-06-04T15:14:44;48.64;45.71;52.39;;
72736;Laerm;60856;53.238;10.448;2023-06-04T15:17:09;48.56;45.55;52.03;;
72736;Laerm;60856;53.238;10.448;2023-06-04T15:19:35;48.46;45.57;52.12;;
72736;Laerm;60856;53.238;10.448;2023-06-04T15:22:00;48.02;45.07;51.42;;
72736;Laerm;60856;53.238;10.448;2023-06-04T15:24:25;47.63;45.41;51.51;;
72736;Laerm;60856;53.238;10.448;2023-06-04T15:26:50;47.55;45.60;51.03;;
72736;Laerm;60856;53.238;10.448;2023-06-04T15:29:16;47.55;45.61;51.22;;
72736;Laerm;60856;53.238;10.448;2023-06-04T15:31:41;47.43;45.34;50.73;;
72736;Laerm;60856;53.238;10.448;2023-06-04T15:34:06;47.52;45.57;50.86;;
72736;Laerm;60856;53.238;10.448;2023-06-04T15:36:32;47.54;45.59;50.86;;
72736;Laerm;60856;53.238;10.448;2023-06-04T15:38:57;47.84;45.56;51.04;;
72736;Laerm;60856;53.238;10.448;2023-06-04T15:41:22;47.81;45.65;51.61;;
72736;Laerm;60856;53.238;10.448;2023-06-04T15:43:48;47.85;45.70;51.34;;
72736;Laerm;60856;53.238;10.448;2023-06-04T15:46:14;47.92;45.67;51.21;;
72736;Laerm;60856;53.238;10.448;2023-06-04T15:48:39;47.72;45.82;50.81;;
72736;Laerm;60856;53.238;10.448;2023-06-04T15:51:05;47.27;45.70;50.25;;
72736;Laerm;60856;53.238;10.448;2023-06-04T15:53:30;47.33;45.72;50.46;;
72736;Laerm;60856;53.238;10.448;2023-06-04T15:55:55;47.46;45.66;50.77;;
72736;Laerm;60856;53.238;10.448;2023-06-04T15:58:21;47.61;45.41;50.88;;
72736;Laerm;60856;53.238;10.448;2023-06-04T16:00:46;47.42;45.60;50.76;;
72736;Laerm;60856;53.238;10.448;2023-06-04T16:03:11;47.46;45.56;50.60;;
72736;Laerm;60856;53.238;10.448;2023-06-04T16:05:37;47.56;45.57;50.97;;
72736;Laerm;60856;53.238;10.448;2023-06-04T16:08:02;47.40;45.30;50.60;;
72736;Laerm;60856;53.238;10.448;2023-06-04T16:10:28;47.42;45.53;50.47;;
72736;Laerm;60856;53.238;10.448;2023-06-04T16:12:53;48.08;45.86;50.64;;
72736;Laerm;60856;53.238;10.448;2023-06-04T16:15:19;47.78;45.71;50.90;;
72736;Laerm;60856;53.238;10.448;2023-06-04T16:17:44;48.18;45.77;51.77;;
72736;Laerm;60856;53.238;10.448;2023-06-04T16:20:12;48.87;45.34;52.62;;